createdAt,value
2018-01-28T00:01:43.072Z,41.63
2018-01-28T00:04:10.656Z,42.13
2018-01-28T00:06:38.260Z,34.90
2018-01-28T00:09:05.830Z,40.13
2018-01-28T00:11:33.379Z,44.80
2018-01-28T00:14:00.989Z,36.53
2018-01-28T00:16:28.578Z,40.50
2018-01-28T00:18:56.185Z,37.67
2018-01-28T00:21:23.740Z,39.23
2018-01-28T00:23:51.262Z,34.47
2018-01-28T00:26:18.836Z,36.80
2018-01-28T00:28:46.479Z,33.20
2018-01-28T00:31:14.024Z,43.20
2018-01-28T00:33:41.577Z,38.33
2018-01-28T00:36:09.514Z,38.50
2018-01-28T00:38:37.142Z,31.70
2018-01-28T00:41:04.650Z,26.00
2018-01-28T00:43:32.250Z,25.33
2018-01-28T00:45:59.820Z,33.07
2018-01-28T00:48:27.327Z,27.50
2018-01-28T00:50:54.887Z,30.63
2018-01-28T00:53:27.607Z,24.17
2018-01-28T00:55:55.158Z,25.67
2018-01-28T00:58:22.775Z,27.37
2018-01-28T01:00:50.373Z,26.63
2018-01-28T01:03:17.934Z,27.33
2018-01-28T01:05:45.590Z,27.60
2018-01-28T01:08:13.099Z,28.33
2018-01-28T01:10:40.590Z,26.37
2018-01-28T01:13:08.541Z,28.03
2018-01-28T01:15:36.510Z,32.67
2018-01-28T01:18:04.442Z,26.70
2018-01-28T01:20:31.983Z,27.93
2018-01-28T01:22:59.555Z,24.60
2018-01-28T01:25:27.133Z,22.50
2018-01-28T01:27:55.087Z,25.87
2018-01-28T01:30:22.615Z,25.73
2018-01-28T01:32:50.147Z,23.57
2018-01-28T01:35:18.127Z,22.00
2018-01-28T01:37:45.666Z,24.07
2018-01-28T01:40:13.611Z,24.13
2018-01-28T01:42:41.202Z,25.50
2018-01-28T01:45:09.197Z,23.93
2018-01-28T01:47:36.696Z,22.77
2018-01-28T01:50:04.246Z,21.43
2018-01-28T01:52:31.793Z,23.43
2018-01-28T01:54:59.309Z,23.40
2018-01-28T01:57:26.888Z,24.57
2018-01-28T01:59:54.468Z,24.57
2018-01-28T02:02:22.071Z,23.73
2018-01-28T02:04:50.086Z,23.10
2018-01-28T02:07:17.623Z,22.50
2018-01-28T02:09:45.163Z,24.13
2018-01-28T02:12:13.151Z,23.27
2018-01-28T02:14:40.762Z,24.07
2018-01-28T02:17:08.333Z,26.40
2018-01-28T02:19:35.889Z,21.30
2018-01-28T02:22:03.825Z,24.77
2018-01-28T02:24:31.355Z,24.13
2018-01-28T02:26:58.908Z,21.23
2018-01-28T02:29:26.490Z,22.80
2018-01-28T02:31:54.120Z,22.17
2018-01-28T02:34:21.730Z,26.33
2018-01-28T02:36:49.332Z,25.60
2018-01-28T02:39:16.874Z,22.50
2018-01-28T02:41:44.831Z,18.73
2018-01-28T02:44:12.401Z,20.27
2018-01-28T02:46:40.387Z,20.90
2018-01-28T02:49:08.018Z,21.90
2018-01-28T02:51:35.612Z,21.23
2018-01-28T02:54:03.167Z,23.00
2018-01-28T02:56:30.696Z,20.70
2018-01-28T02:58:58.272Z,22.67
2018-01-28T03:01:25.798Z,20.00
2018-01-28T03:03:53.309Z,22.37
2018-01-28T03:06:20.831Z,20.27
2018-01-28T03:08:48.794Z,20.77
2018-01-28T03:11:16.411Z,21.50
2018-01-28T03:13:43.931Z,19.83
2018-01-28T03:16:11.499Z,22.23
2018-01-28T03:18:39.048Z,20.90
2018-01-28T03:21:06.593Z,20.73
2018-01-28T03:23:34.146Z,24.87
2018-01-28T03:26:01.744Z,25.30
2018-01-28T03:28:29.310Z,22.43
2018-01-28T03:30:56.917Z,23.23
2018-01-28T03:33:24.560Z,22.83
2018-01-28T03:35:52.155Z,20.60
2018-01-28T03:38:19.735Z,20.37
2018-01-28T03:40:47.319Z,21.57
2018-01-28T03:43:14.853Z,22.53
2018-01-28T03:45:42.425Z,21.07
2018-01-28T03:48:10.017Z,19.77
2018-01-28T03:50:37.582Z,18.83
2018-01-28T03:53:05.120Z,20.70
2018-01-28T03:55:32.710Z,19.07
2018-01-28T03:58:00.303Z,23.53
2018-01-28T04:00:27.904Z,19.77
2018-01-28T04:02:55.506Z,23.70
2018-01-28T04:05:23.069Z,20.80
2018-01-28T04:07:50.660Z,21.97
2018-01-28T04:10:18.281Z,22.20
2018-01-28T04:12:45.848Z,25.13
2018-01-28T04:15:13.475Z,21.40
2018-01-28T04:17:41.054Z,22.47
2018-01-28T04:20:09.047Z,23.57
2018-01-28T04:22:36.579Z,24.87
2018-01-28T04:25:04.577Z,21.80
2018-01-28T04:27:32.127Z,21.17
2018-01-28T04:29:59.719Z,21.57
2018-01-28T04:32:27.286Z,20.00
2018-01-28T04:34:54.817Z,24.90
2018-01-28T04:37:22.342Z,23.70
2018-01-28T04:39:49.907Z,22.40
2018-01-28T04:42:17.447Z,23.20
2018-01-28T04:44:45.436Z,24.03
2018-01-28T04:47:13.115Z,23.67
2018-01-28T04:49:40.657Z,23.97
2018-01-28T04:52:08.214Z,23.67
2018-01-28T04:54:35.780Z,24.93
2018-01-28T04:57:03.333Z,23.80
2018-01-28T04:59:30.912Z,24.80
2018-01-28T05:02:01.118Z,24.73
2018-01-28T05:04:28.691Z,24.33
2018-01-28T05:06:56.258Z,22.87
2018-01-28T05:09:23.852Z,21.97
2018-01-28T05:11:51.394Z,24.10
2018-01-28T05:14:18.990Z,25.40
2018-01-28T05:16:46.961Z,24.07
2018-01-28T05:19:14.501Z,23.67
2018-01-28T05:21:42.451Z,25.63
2018-01-28T05:24:10.040Z,23.77
2018-01-28T05:26:38.062Z,25.20
2018-01-28T05:29:05.635Z,25.03
2018-01-28T05:31:33.201Z,22.40
2018-01-28T05:34:00.739Z,27.03
2018-01-28T05:36:28.291Z,24.63
2018-01-28T05:38:55.880Z,23.77
2018-01-28T05:41:23.431Z,23.90
2018-01-28T05:43:51.034Z,24.57
2018-01-28T05:46:18.650Z,25.90
2018-01-28T05:48:46.217Z,26.27
2018-01-28T05:51:13.773Z,25.37
2018-01-28T05:53:41.377Z,21.07
2018-01-28T05:56:08.993Z,24.77
2018-01-28T05:58:36.595Z,25.03
2018-01-28T06:01:04.231Z,24.27
2018-01-28T06:03:32.195Z,21.93
2018-01-28T06:06:00.168Z,25.87
2018-01-28T06:08:28.159Z,24.87
2018-01-28T06:10:55.698Z,27.43
2018-01-28T06:13:23.610Z,24.50
2018-01-28T06:15:51.230Z,24.03
2018-01-28T06:18:18.830Z,21.93
2018-01-28T06:20:46.496Z,23.20
2018-01-28T06:23:14.051Z,24.23
2018-01-28T06:25:41.598Z,25.57
2018-01-28T06:28:09.092Z,37.50
2018-01-28T06:30:36.613Z,26.47
2018-01-28T06:33:04.087Z,23.73
2018-01-28T06:35:31.683Z,22.60
2018-01-28T06:37:59.655Z,23.50
2018-01-28T06:40:27.657Z,22.63
2018-01-28T06:42:55.275Z,22.33
2018-01-28T06:45:23.267Z,22.07
2018-01-28T06:47:50.860Z,27.97
2018-01-28T06:50:18.409Z,30.10
2018-01-28T06:52:45.999Z,25.00
2018-01-28T06:55:13.522Z,24.43
2018-01-28T06:57:41.102Z,25.07
2018-01-28T07:00:08.653Z,25.47
2018-01-28T07:02:36.214Z,26.47
2018-01-28T07:05:03.800Z,24.57
2018-01-28T07:07:31.401Z,25.53
2018-01-28T07:09:58.928Z,23.77
2018-01-28T07:12:26.502Z,22.90
2018-01-28T07:14:54.058Z,24.90
2018-01-28T07:17:21.631Z,24.90
2018-01-28T07:19:49.277Z,28.33
2018-01-28T07:22:16.990Z,29.33
2018-01-28T07:24:44.526Z,23.97
2018-01-28T07:27:12.140Z,25.97
2018-01-28T07:29:39.674Z,27.47
2018-01-28T07:32:07.256Z,24.00
2018-01-28T07:34:34.823Z,26.53
2018-01-28T07:37:02.440Z,25.63
2018-01-28T07:39:29.991Z,28.80
2018-01-28T07:41:57.588Z,25.40
2018-01-28T07:44:25.196Z,25.17
2018-01-28T07:46:52.730Z,24.33
2018-01-28T07:49:20.362Z,25.97
2018-01-28T07:51:47.927Z,25.77
2018-01-28T07:54:15.909Z,24.90
2018-01-28T07:56:44.014Z,27.13
2018-01-28T07:59:11.635Z,27.93
2018-01-28T08:01:39.642Z,27.67
2018-01-28T08:04:07.171Z,29.40
2018-01-28T08:06:35.173Z,31.57
2018-01-28T08:09:02.756Z,29.50
2018-01-28T08:11:35.898Z,25.57
2018-01-28T08:14:03.969Z,23.00
2018-01-28T08:16:31.570Z,31.10
2018-01-28T08:18:59.171Z,26.13
2018-01-28T08:21:27.163Z,26.87
2018-01-28T08:23:54.747Z,29.03
2018-01-28T08:26:22.341Z,30.00
2018-01-28T08:31:49.909Z,29.13
2018-01-28T08:34:17.518Z,30.77
2018-01-28T08:36:45.075Z,27.13
2018-01-28T08:39:12.625Z,28.10
2018-01-28T08:41:40.207Z,27.40
2018-01-28T08:44:07.865Z,25.13
2018-01-28T08:46:35.416Z,28.30
2018-01-28T08:49:03.103Z,31.20
2018-01-28T08:51:30.656Z,29.63
2018-01-28T08:53:58.255Z,29.83
2018-01-28T08:56:25.809Z,26.73
2018-01-28T08:58:53.389Z,29.67
2018-01-28T09:01:20.990Z,27.93
2018-01-28T09:03:48.625Z,26.10
2018-01-28T09:06:16.159Z,26.77
2018-01-28T09:08:44.117Z,28.57
2018-01-28T09:11:12.076Z,25.50
2018-01-28T09:13:39.630Z,28.10
2018-01-28T09:16:07.183Z,27.57
2018-01-28T09:18:34.760Z,33.57
2018-01-28T09:21:02.344Z,24.47
2018-01-28T09:23:29.943Z,22.27
2018-01-28T09:25:57.508Z,23.13
2018-01-28T09:28:25.105Z,21.27
2018-01-28T09:30:52.660Z,22.53
2018-01-28T09:33:20.211Z,23.67
2018-01-28T09:35:47.789Z,26.10
2018-01-28T09:38:15.353Z,24.17
2018-01-28T09:40:42.998Z,25.43
2018-01-28T09:43:11.010Z,27.13
2018-01-28T09:45:38.578Z,24.80
2018-01-28T09:48:06.134Z,25.20
2018-01-28T09:50:33.738Z,23.30
2018-01-28T09:53:01.277Z,25.30
2018-01-28T09:55:28.877Z,23.90
2018-01-28T09:57:56.440Z,24.93
2018-01-28T10:00:23.971Z,24.73
2018-01-28T10:02:53.147Z,24.10
2018-01-28T10:05:20.688Z,22.03
2018-01-28T10:07:48.255Z,24.10
2018-01-28T10:10:15.811Z,28.07
2018-01-28T10:12:43.354Z,20.53
2018-01-28T10:15:10.905Z,22.30
2018-01-28T10:17:38.545Z,22.10
2018-01-28T10:20:06.157Z,19.30
2018-01-28T10:22:33.724Z,21.87
2018-01-28T10:25:01.350Z,23.10
2018-01-28T10:27:28.884Z,26.77
2018-01-28T10:29:56.435Z,23.20
2018-01-28T10:32:24.043Z,18.00
2018-01-28T10:34:51.632Z,21.37
2018-01-28T10:37:19.172Z,21.53
2018-01-28T10:39:46.767Z,21.17
2018-01-28T10:42:14.355Z,22.27
2018-01-28T10:44:41.871Z,20.87
2018-01-28T10:47:09.442Z,20.47
2018-01-28T10:49:37.035Z,21.87
2018-01-28T10:52:04.582Z,20.97
2018-01-28T10:54:32.140Z,19.03
2018-01-28T10:57:00.142Z,16.73
2018-01-28T10:59:27.689Z,15.93
2018-01-28T11:01:55.301Z,17.50
2018-01-28T11:04:22.862Z,20.90
2018-01-28T11:06:50.339Z,18.27
2018-01-28T11:09:17.946Z,17.10
2018-01-28T11:11:45.517Z,18.53
2018-01-28T11:14:13.087Z,17.77
2018-01-28T11:16:40.610Z,24.07
2018-01-28T11:19:08.223Z,18.50
2018-01-28T11:21:35.856Z,19.87
2018-01-28T11:24:03.830Z,21.20
2018-01-28T11:26:31.446Z,20.33
2018-01-28T11:28:58.971Z,22.43
2018-01-28T11:31:26.498Z,20.07
2018-01-28T11:33:54.488Z,21.47
2018-01-28T11:36:21.996Z,21.93
2018-01-28T11:38:49.516Z,19.17
2018-01-28T11:41:17.117Z,21.77
2018-01-28T11:43:45.039Z,19.90
2018-01-28T11:46:12.642Z,19.70
2018-01-28T11:48:40.253Z,21.93
2018-01-28T11:51:07.833Z,18.70
2018-01-28T11:53:35.448Z,19.37
2018-01-28T11:56:03.439Z,17.93
2018-01-28T11:58:31.018Z,20.20
2018-01-28T12:00:58.585Z,18.53
2018-01-28T12:03:26.184Z,21.33
2018-01-28T12:05:53.754Z,25.97
2018-01-28T12:08:21.311Z,19.23
2018-01-28T12:10:49.283Z,18.27
2018-01-28T12:13:16.807Z,24.77
2018-01-28T12:15:44.373Z,24.00
2018-01-28T12:18:12.010Z,21.37
2018-01-28T12:20:39.543Z,22.43
2018-01-28T12:23:07.167Z,26.37
2018-01-28T12:25:35.171Z,25.13
2018-01-28T12:28:02.741Z,24.27
2018-01-28T12:30:30.262Z,22.63
2018-01-28T12:32:57.886Z,24.63
2018-01-28T12:35:25.468Z,22.17
2018-01-28T12:37:53.404Z,25.50
2018-01-28T12:40:21.027Z,22.83
2018-01-28T12:42:48.635Z,25.47
2018-01-28T12:45:16.218Z,29.00
2018-01-28T12:47:44.221Z,25.97
2018-01-28T12:50:11.786Z,23.40
2018-01-28T12:52:39.355Z,23.00
2018-01-28T12:55:06.955Z,26.90
2018-01-28T12:57:34.931Z,22.63
2018-01-28T13:00:02.496Z,23.87
2018-01-28T13:02:30.152Z,24.43
2018-01-28T13:04:57.662Z,20.63
2018-01-28T13:07:25.198Z,23.97
2018-01-28T13:09:52.795Z,22.00
2018-01-28T13:12:20.423Z,21.57
2018-01-28T13:14:48.004Z,25.23
2018-01-28T13:17:15.722Z,22.23
2018-01-28T13:19:43.331Z,20.77
2018-01-28T13:22:10.927Z,21.17
2018-01-28T13:24:38.492Z,22.37
2018-01-28T13:27:06.078Z,22.33
2018-01-28T13:29:33.667Z,18.40
2018-01-28T13:32:01.222Z,22.93
2018-01-28T13:34:28.809Z,22.27
2018-01-28T13:36:56.444Z,23.23
2018-01-28T13:39:24.092Z,20.30
2018-01-28T13:41:51.732Z,22.20
2018-01-28T13:44:19.818Z,25.10
2018-01-28T13:46:47.479Z,30.80
2018-01-28T13:49:15.051Z,23.27
2018-01-28T13:51:42.615Z,24.87
2018-01-28T13:54:10.203Z,24.47
2018-01-28T13:56:37.837Z,24.97
2018-01-28T13:59:05.450Z,24.90
2018-01-28T14:01:51.962Z,25.67
2018-01-28T14:04:19.514Z,22.03
2018-01-28T14:06:47.130Z,25.67
2018-01-28T14:09:14.722Z,26.60
2018-01-28T14:11:42.330Z,25.93
2018-01-28T14:14:09.949Z,25.00
2018-01-28T14:16:37.498Z,27.53
2018-01-28T14:19:05.110Z,23.17
2018-01-28T14:21:32.698Z,27.23
2018-01-28T14:24:00.337Z,24.50
2018-01-28T14:26:27.918Z,34.30
2018-01-28T14:28:55.942Z,25.53
2018-01-28T14:31:23.535Z,22.73
2018-01-28T14:33:51.132Z,26.27
2018-01-28T14:36:18.727Z,23.87
2018-01-28T14:38:46.276Z,25.03
2018-01-28T14:41:13.827Z,24.37
2018-01-28T14:43:41.425Z,22.23
2018-01-28T14:46:09.049Z,22.20
2018-01-28T14:48:36.623Z,24.33
2018-01-28T14:51:04.218Z,24.27
2018-01-28T14:53:31.803Z,24.13
2018-01-28T14:55:59.402Z,24.43
2018-01-28T14:58:27.018Z,26.30
2018-01-28T15:00:54.575Z,22.57
2018-01-28T15:03:22.147Z,25.90
2018-01-28T15:05:49.706Z,27.13
2018-01-28T15:08:17.292Z,28.03
2018-01-28T15:10:44.835Z,26.93
2018-01-28T15:13:12.470Z,22.87
2018-01-28T15:15:40.080Z,21.07
2018-01-28T15:18:07.698Z,26.27
2018-01-28T15:20:35.247Z,19.63
2018-01-28T15:23:02.849Z,23.73
2018-01-28T15:25:30.448Z,25.77
2018-01-28T15:27:57.968Z,21.53
2018-01-28T15:30:25.515Z,22.90
2018-01-28T15:32:53.087Z,21.33
2018-01-28T15:35:20.614Z,22.87
2018-01-28T15:37:48.178Z,23.60
2018-01-28T15:40:15.784Z,24.20
2018-01-28T15:42:43.316Z,23.80
2018-01-28T15:45:10.887Z,22.53
2018-01-28T15:47:38.952Z,22.10
2018-01-28T15:50:06.558Z,24.00
2018-01-28T15:52:34.184Z,23.40
2018-01-28T15:55:01.727Z,24.53
2018-01-28T15:57:29.274Z,19.83
2018-01-28T15:59:56.839Z,30.10
2018-01-28T16:02:24.423Z,27.03
2018-01-28T16:04:52.030Z,25.50
2018-01-28T16:07:19.569Z,24.43
2018-01-28T16:09:47.090Z,23.97
2018-01-28T16:12:14.614Z,25.70
2018-01-28T16:14:42.145Z,23.37
2018-01-28T16:17:09.724Z,30.03
2018-01-28T16:19:37.343Z,33.90
2018-01-28T16:22:05.551Z,30.87
2018-01-28T16:24:33.085Z,27.97
2018-01-28T17:41:45.187Z,53.03
2018-01-28T17:44:12.819Z,47.43
2018-01-28T17:46:40.424Z,45.10
2018-01-28T17:49:08.033Z,32.87
2018-01-28T17:51:35.649Z,27.00
2018-01-28T17:54:03.199Z,20.50
2018-01-28T17:56:30.759Z,20.83
2018-01-28T17:58:58.327Z,19.97
2018-01-28T18:01:25.899Z,24.00
2018-01-28T18:03:53.890Z,19.70
2018-01-28T18:06:21.478Z,22.33
2018-01-28T18:08:49.020Z,21.63
2018-01-28T18:11:16.596Z,18.70
2018-01-28T18:13:44.146Z,19.67
2018-01-28T18:16:11.680Z,28.00
2018-01-28T18:18:39.280Z,24.83
2018-01-28T18:21:06.892Z,22.10
2018-01-28T18:23:34.460Z,19.77
2018-01-28T18:26:02.010Z,20.90
2018-01-28T18:28:29.591Z,24.87
2018-01-28T18:30:57.156Z,22.80
2018-01-28T18:33:24.694Z,27.67
2018-01-28T18:35:52.238Z,23.70
2018-01-28T18:38:19.778Z,25.57
2018-01-28T18:40:47.417Z,29.10
2018-01-28T18:43:15.035Z,26.00
2018-01-28T18:45:42.671Z,26.37
2018-01-28T18:48:10.282Z,28.63
2018-01-28T18:50:37.854Z,26.03
2018-01-28T18:53:05.449Z,27.47
2018-01-28T18:55:33.050Z,26.53
2018-01-28T18:58:00.603Z,24.13
2018-01-28T19:00:28.181Z,25.73
2018-01-28T19:02:55.767Z,27.70
2018-01-28T19:05:23.386Z,26.67
2018-01-28T19:07:50.966Z,27.77
2018-01-28T19:10:18.512Z,23.90
2018-01-28T19:12:46.075Z,29.50
2018-01-28T19:15:13.594Z,26.47
2018-01-28T19:17:41.223Z,29.50
2018-01-28T19:20:08.811Z,23.67
2018-01-28T19:22:36.415Z,30.77
2018-01-28T19:25:04.029Z,25.23
2018-01-28T19:27:31.605Z,27.50
2018-01-28T19:29:59.156Z,27.40
2018-01-28T19:32:26.774Z,29.10
2018-01-28T19:34:54.303Z,31.00
2018-01-28T19:37:21.836Z,28.93
2018-01-28T19:39:49.520Z,29.07
2018-01-28T19:42:17.165Z,29.23
2018-01-28T19:44:44.746Z,29.30
2018-01-28T19:47:12.311Z,28.97
2018-01-28T19:49:39.923Z,29.13
2018-01-28T19:52:07.511Z,29.87
2018-01-28T19:54:35.156Z,25.87
2018-01-28T19:57:02.687Z,30.10
2018-01-28T19:59:30.255Z,31.83
2018-01-28T20:01:57.875Z,35.17
2018-01-28T20:04:25.482Z,32.20
2018-01-28T20:06:53.077Z,32.73
2018-01-28T20:09:20.668Z,30.43
2018-01-28T20:11:48.165Z,33.17
2018-01-28T20:14:15.706Z,29.47
2018-01-28T20:16:43.250Z,36.03
2018-01-28T20:19:10.794Z,29.50
2018-01-28T20:21:38.377Z,32.87
2018-01-28T20:24:06.011Z,31.07
2018-01-28T20:26:34.027Z,31.63
2018-01-28T20:29:01.599Z,28.00
2018-01-28T20:31:29.130Z,34.17
2018-01-28T20:33:56.638Z,30.23
2018-01-28T20:36:24.250Z,33.67
2018-01-28T20:38:51.786Z,31.37
2018-01-28T20:41:19.345Z,33.60
2018-01-28T20:43:46.883Z,34.63
2018-01-28T20:46:14.452Z,28.87
2018-01-28T20:48:42.013Z,32.80
2018-01-28T20:51:10.050Z,31.73
2018-01-28T20:53:37.652Z,28.60
2018-01-28T20:56:05.174Z,29.73
2018-01-28T20:58:32.740Z,31.83
2018-01-28T21:01:00.318Z,30.20
2018-01-28T21:03:28.254Z,29.57
2018-01-28T21:05:55.824Z,31.77
2018-01-28T21:08:23.430Z,26.00
2018-01-28T21:10:51.019Z,27.70
2018-01-28T21:13:18.550Z,30.07
2018-01-28T21:16:00.135Z,28.47
2018-01-28T21:18:28.665Z,33.10
2018-01-28T21:20:56.433Z,35.10
2018-01-28T21:23:24.880Z,30.30
2018-01-28T21:25:52.689Z,23.67
2018-01-28T21:28:21.282Z,17.00
2018-01-28T21:30:49.036Z,17.10
2018-01-28T21:33:16.885Z,15.77
2018-01-28T21:35:45.511Z,22.40
2018-01-28T21:38:13.202Z,35.07
2018-01-28T21:40:40.936Z,14.93
2018-01-28T21:43:08.746Z,12.70
2018-01-28T21:45:36.452Z,15.73
2018-01-28T21:48:04.680Z,13.97
2018-01-28T21:50:32.284Z,14.43
2018-01-28T21:53:00.015Z,16.03
2018-01-28T21:55:31.532Z,13.03
2018-01-28T21:58:00.033Z,14.00
2018-01-28T22:00:28.169Z,15.10
2018-01-28T22:02:55.925Z,14.17
2018-01-28T22:05:23.648Z,15.07
2018-01-28T22:07:51.700Z,16.13
2018-01-28T22:10:19.386Z,12.97
2018-01-28T22:12:47.101Z,18.77
2018-01-28T22:15:14.851Z,19.37
2018-01-28T22:17:42.540Z,18.93
2018-01-28T22:20:10.193Z,15.83
2018-01-28T22:22:37.963Z,15.90
2018-01-28T22:25:05.704Z,13.53
2018-01-28T22:27:33.286Z,11.27
2018-01-28T22:30:01.081Z,13.03
2018-01-28T22:32:28.873Z,11.80
2018-01-28T22:34:56.594Z,12.60
2018-01-28T22:37:24.692Z,20.23
2018-01-28T22:39:52.369Z,17.00
2018-01-28T22:42:20.970Z,15.93
2018-01-28T22:44:48.956Z,22.17
2018-01-28T22:47:16.732Z,17.80
2018-01-28T22:49:44.485Z,18.63
2018-01-28T22:52:13.581Z,14.87
2018-01-28T22:54:41.368Z,22.20
2018-01-28T22:57:09.256Z,14.00
2018-01-28T22:59:37.095Z,17.27
2018-01-28T23:02:05.008Z,14.07
2018-01-28T23:04:32.671Z,15.67
2018-01-28T23:07:00.349Z,14.63
2018-01-28T23:09:28.139Z,20.47
2018-01-28T23:11:56.263Z,18.83
2018-01-28T23:14:23.942Z,25.03
2018-01-28T23:16:51.681Z,23.07
2018-01-28T23:19:19.412Z,28.33
2018-01-28T23:21:50.379Z,23.63
2018-01-28T23:24:18.037Z,29.77
2018-01-28T23:26:45.760Z,34.10
2018-01-28T23:29:13.452Z,25.90
2018-01-28T23:31:41.398Z,49.40
2018-01-28T23:34:09.202Z,35.93
2018-01-28T23:36:36.911Z,35.43
2018-01-28T23:39:05.079Z,43.70
2018-01-28T23:41:32.835Z,31.20
2018-01-28T23:44:00.806Z,32.63
2018-01-28T23:46:28.611Z,36.77
2018-01-28T23:48:56.426Z,34.03
2018-01-28T23:51:24.715Z,27.03
2018-01-28T23:53:52.745Z,27.63
2018-01-28T23:56:20.433Z,29.37
2018-01-28T23:58:48.114Z,26.50
